Time;durP1;ratioP1;P1;durP2;ratioP2;P2;SDS_P1;SDS_P2;PMS_P1;PMS_P2;Temp;Humidity;BMP_temperature;BMP_pressure;BME280_temperature;BME280_humidity;BME280_pressure;Samples;Min_cycle;Max_cycle;Signal;HPM_P1;HPM_P2
2024/01/26 00:00:16;;;;;;;11.60;6.00;;;;;;;;;;6113707;23;20539;-62
2024/01/26 00:03:10;;;;;;;15.00;5.50;;;;;;;;;;6115078;23;20479;-53
2024/01/26 00:06:00;;;;;;;16.77;5.82;;;;;;;;;;6116070;23;20025;-55
2024/01/26 00:08:54;;;;;;;11.30;4.50;;;;;;;;;;6116015;23;20543;-52
2024/01/26 00:11:41;;;;;;;17.35;4.43;;;;;;;;;;6117007;23;20380;-54
2024/01/26 00:14:42;;;;;;;13.98;4.90;;;;;;;;;;6114910;23;20117;-55
2024/01/26 00:17:36;;;;;;;11.63;4.90;;;;;;;;;;6116033;23;20029;-60
2024/01/26 00:20:29;;;;;;;17.13;5.25;;;;;;;;;;6116573;23;20022;-59
2024/01/26 00:23:16;;;;;;;15.60;5.75;;;;;;;;;;6115384;23;20026;-60
2024/01/26 00:26:12;;;;;;;20.95;5.32;;;;;;;;;;6115813;23;20034;-56
2024/01/26 00:29:00;;;;;;;18.52;5.65;;;;;;;;;;6115285;23;20656;-60
2024/01/26 00:31:56;;;;;;;17.05;5.60;;;;;;;;;;6117897;23;20398;-53
2024/01/26 00:34:43;;;;;;;18.95;5.28;;;;;;;;;;6116985;23;20037;-57
2024/01/26 00:37:37;;;;;;;13.35;6.03;;;;;;;;;;6115378;23;20763;-55
2024/01/26 00:40:24;;;;;;;27.65;6.53;;;;;;;;;;6115405;23;20491;-57
2024/01/26 00:43:19;;;;;;;16.90;5.57;;;;;;;;;;6115659;23;20053;-58
2024/01/26 00:46:06;;;;;;;24.73;5.50;;;;;;;;;;6116450;23;20030;-52
2024/01/26 00:49:00;;;;;;;16.13;6.20;;;;;;;;;;6113778;23;20026;-58
2024/01/26 00:52:00;;;;;;;18.05;5.20;;;;;;;;;;6116269;23;20029;-57
2024/01/26 00:54:57;;;;;;;19.23;6.22;;;;;;;;;;6115526;23;20475;-54
2024/01/26 00:57:41;;;;;;;16.63;6.10;;;;;;;;;;6113057;23;20029;-61
2024/01/26 01:00:35;;;;;;;22.10;6.97;;;;;;;;;;6114645;23;20026;-66
2024/01/26 01:03:22;;;;;;;26.33;7.32;;;;;;;;;;6115555;23;20368;-66
2024/01/26 01:06:16;;;;;;;21.40;6.97;;;;;;;;;;6116010;23;20101;-66
2024/01/26 01:09:05;;;;;;;24.40;7.75;;;;;;;;;;6094803;23;20029;-66
2024/01/26 01:11:57;;;;;;;17.77;6.85;;;;;;;;;;6116725;23;20021;-66
2024/01/26 01:14:51;;;;;;;19.25;6.97;;;;;;;;;;6113257;23;20480;-62
2024/01/26 01:17:46;;;;;;;17.27;5.85;;;;;;;;;;6114096;23;20072;-63
2024/01/26 01:20:33;;;;;;;34.88;6.47;;;;;;;;;;6114168;23;20052;-62
2024/01/26 01:23:27;;;;;;;15.32;5.93;;;;;;;;;;6115436;23;20105;-62
2024/01/26 01:26:16;;;;;;;15.55;5.22;;;;;;;;;;6114926;23;20034;-57
2024/01/26 01:29:08;;;;;;;22.65;6.40;;;;;;;;;;6116237;23;20047;-51
2024/01/26 01:31:55;;;;;;;17.65;5.05;;;;;;;;;;6118112;23;20026;-47
2024/01/26 01:34:49;;;;;;;20.50;6.47;;;;;;;;;;6115034;23;20085;-48
2024/01/26 01:37:36;;;;;;;15.85;5.65;;;;;;;;;;6116139;23;20029;-49
2024/01/26 01:40:30;;;;;;;13.23;5.57;;;;;;;;;;6114599;23;20383;-52
2024/01/26 01:43:24;;;;;;;24.67;6.63;;;;;;;;;;6113575;23;20026;-61
2024/01/26 01:46:11;;;;;;;20.40;7.07;;;;;;;;;;6114914;23;20069;-61
2024/01/26 01:49:05;;;;;;;15.18;7.10;;;;;;;;;;6114203;23;20251;-61
2024/01/26 01:52:00;;;;;;;21.20;7.03;;;;;;;;;;6114438;23;20457;-58
2024/01/26 01:54:48;;;;;;;17.08;5.95;;;;;;;;;;6114234;23;20408;-66
2024/01/26 01:57:44;;;;;;;21.80;6.53;;;;;;;;;;6113328;23;20022;-65
2024/01/26 02:00:31;;;;;;;19.20;6.57;;;;;;;;;;6115295;23;20022;-67
2024/01/26 02:03:24;;;;;;;13.60;5.90;;;;;;;;;;6115962;23;20036;-65
2024/01/26 02:06:11;;;;;;;21.65;6.30;;;;;;;;;;6114443;23;20076;-65
2024/01/26 02:09:06;;;;;;;13.13;6.18;;;;;;;;;;6114537;23;20025;-65
2024/01/26 02:11:53;;;;;;;21.15;6.90;;;;;;;;;;6114161;23;20364;-55
2024/01/26 02:15:00;;;;;;;22.38;6.93;;;;;;;;;;6113637;23;20034;-53
2024/01/26 02:17:47;;;;;;;21.77;6.22;;;;;;;;;;6115295;23;20022;-53
2024/01/26 02:20:41;;;;;;;19.77;6.32;;;;;;;;;;6113549;23;20026;-55
2024/01/26 02:23:28;;;;;;;16.55;5.93;;;;;;;;;;6114329;23;20033;-54
2024/01/26 02:26:22;;;;;;;17.83;6.85;;;;;;;;;;6115523;23;20021;-55
2024/01/26 02:29:09;;;;;;;24.90;7.70;;;;;;;;;;6116052;23;20029;-51
2024/01/26 02:32:03;;;;;;;26.95;9.00;;;;;;;;;;6116581;23;20022;-55
2024/01/26 02:34:50;;;;;;;53.30;11.93;;;;;;;;;;6114123;23;20531;-52
2024/01/26 02:37:44;;;;;;;55.15;12.45;;;;;;;;;;6113876;23;20877;-55
2024/01/26 02:40:31;;;;;;;75.07;13.23;;;;;;;;;;6114601;23;20063;-60
2024/01/26 02:43:25;;;;;;;79.05;11.73;;;;;;;;;;6114328;23;20018;-60
2024/01/26 02:46:12;;;;;;;80.47;11.65;;;;;;;;;;6113761;23;20026;-59
2024/01/26 02:49:06;;;;;;;93.03;13.73;;;;;;;;;;6113565;23;20479;-62
2024/01/26 02:51:53;;;;;;;77.18;11.52;;;;;;;;;;6114288;23;20072;-52
2024/01/26 02:54:47;;;;;;;57.58;10.18;;;;;;;;;;6115173;23;20384;-58
2024/01/26 02:57:34;;;;;;;43.78;9.55;;;;;;;;;;6115549;23;20085;-57
2024/01/26 03:00:28;;;;;;;61.67;10.38;;;;;;;;;;6114750;23;20103;-56
2024/01/26 03:03:15;;;;;;;45.08;8.30;;;;;;;;;;6115968;23;20022;-57
2024/01/26 03:06:11;;;;;;;25.42;7.72;;;;;;;;;;6113442;23;20022;-57
2024/01/26 03:08:56;;;;;;;17.52;7.25;;;;;;;;;;6113953;23;20620;-59
2024/01/26 03:11:50;;;;;;;16.48;6.60;;;;;;;;;;6115417;23;20073;-60
2024/01/26 03:14:44;;;;;;;26.38;8.13;;;;;;;;;;6114064;23;20022;-60
2024/01/26 03:17:37;;;;;;;24.30;7.60;;;;;;;;;;6114609;23;20028;-66
2024/01/26 03:20:24;;;;;;;35.95;8.75;;;;;;;;;;6114860;23;20033;-60
2024/01/26 03:23:18;;;;;;;27.17;8.68;;;;;;;;;;6116491;23;20022;-51
2024/01/26 03:26:05;;;;;;;25.13;6.20;;;;;;;;;;6115257;23;20026;-54
2024/01/26 03:28:59;;;;;;;21.08;6.10;;;;;;;;;;6113812;23;20096;-51
2024/01/26 03:31:46;;;;;;;15.68;6.28;;;;;;;;;;6114412;23;20105;-54
2024/01/26 03:34:40;;;;;;;18.58;5.95;;;;;;;;;;6114012;23;20025;-51
2024/01/26 03:37:28;;;;;;;14.35;5.60;;;;;;;;;;6115284;23;20192;-59
2024/01/26 03:40:24;;;;;;;22.17;6.43;;;;;;;;;;6114761;23;20085;-58
2024/01/26 03:43:09;;;;;;;19.13;5.60;;;;;;;;;;6116050;23;20117;-60
2024/01/26 03:46:03;;;;;;;21.98;6.45;;;;;;;;;;6115860;23;20480;-65
2024/01/26 03:48:51;;;;;;;17.33;5.72;;;;;;;;;;6115825;23;20085;-61
2024/01/26 03:51:45;;;;;;;21.13;6.45;;;;;;;;;;6116179;23;20026;-49
2024/01/26 03:54:32;;;;;;;21.10;6.03;;;;;;;;;;6115200;23;20337;-50
2024/01/26 03:57:26;;;;;;;14.85;5.85;;;;;;;;;;6116180;23;20018;-50
2024/01/26 04:00:13;;;;;;;13.45;6.03;;;;;;;;;;6116016;23;20033;-48
2024/01/26 04:03:07;;;;;;;16.38;6.65;;;;;;;;;;6115354;23;20026;-53
2024/01/26 04:05:54;;;;;;;27.63;6.60;;;;;;;;;;6115181;23;20863;-61
2024/01/26 04:08:48;;;;;;;25.63;6.45;;;;;;;;;;6113410;23;20359;-61
2024/01/26 04:11:35;;;;;;;26.17;6.47;;;;;;;;;;6116986;23;20080;-61
2024/01/26 04:14:36;;;;;;;34.72;7.45;;;;;;;;;;6117523;23;20022;-52
2024/01/26 04:17:23;;;;;;;60.75;8.25;;;;;;;;;;6117882;23;20041;-51
2024/01/26 04:20:17;;;;;;;61.08;9.63;;;;;;;;;;6115812;23;20021;-60
2024/01/26 04:23:11;;;;;;;56.80;8.48;;;;;;;;;;6116181;23;20022;-60
2024/01/26 04:25:58;;;;;;;46.67;8.32;;;;;;;;;;6114898;23;20022;-60
2024/01/26 04:28:52;;;;;;;45.95;7.97;;;;;;;;;;6113626;23;20109;-60
2024/01/26 04:31:43;;;;;;;44.25;7.00;;;;;;;;;;6113082;23;20076;-60
2024/01/26 04:34:40;;;;;;;64.68;9.45;;;;;;;;;;6114294;23;20088;-67
2024/01/26 04:37:33;;;;;;;39.47;6.45;;;;;;;;;;6115189;23;20037;-60
2024/01/26 04:40:27;;;;;;;40.65;7.53;;;;;;;;;;6114670;23;20364;-60
2024/01/26 04:43:14;;;;;;;40.83;7.30;;;;;;;;;;6116199;23;20026;-59
2024/01/26 04:46:08;;;;;;;55.15;8.07;;;;;;;;;;6114718;23;20026;-60
2024/01/26 04:48:55;;;;;;;31.50;7.15;;;;;;;;;;6115340;23;20025;-59
2024/01/26 04:51:49;;;;;;;44.42;7.80;;;;;;;;;;6115385;23;20104;-61
2024/01/26 04:54:37;;;;;;;45.53;8.10;;;;;;;;;;6115840;23;20029;-61
2024/01/26 04:57:31;;;;;;;27.98;7.60;;;;;;;;;;6115591;23;20097;-62
2024/01/26 05:00:18;;;;;;;29.65;7.68;;;;;;;;;;6113065;23;20085;-62
2024/01/26 05:03:12;;;;;;;40.05;8.23;;;;;;;;;;6115379;23;20088;-62
2024/01/26 05:06:00;;;;;;;35.97;8.17;;;;;;;;;;6113682;23;20029;-62
2024/01/26 05:08:54;;;;;;;49.88;10.07;;;;;;;;;;6115868;23;20071;-62
2024/01/26 05:11:45;;;;;;;33.65;7.18;;;;;;;;;;6116657;23;20032;-64
2024/01/26 05:14:45;;;;;;;32.75;8.45;;;;;;;;;;6116027;23;20036;-63
2024/01/26 05:17:33;;;;;;;47.75;9.05;;;;;;;;;;6117772;23;20022;-63
2024/01/26 05:20:27;;;;;;;29.08;6.40;;;;;;;;;;6116203;23;20026;-57
2024/01/26 05:23:14;;;;;;;33.17;7.95;;;;;;;;;;6114894;23;20036;-60
2024/01/26 05:26:08;;;;;;;33.20;8.48;;;;;;;;;;6114054;23;20029;-60
2024/01/26 05:29:02;;;;;;;28.15;7.65;;;;;;;;;;6115532;23;20037;-60
2024/01/26 05:31:53;;;;;;;36.03;8.50;;;;;;;;;;6115146;23;20052;-60
2024/01/26 05:34:47;;;;;;;34.25;8.45;;;;;;;;;;6113751;23;20053;-60
2024/01/26 05:37:35;;;;;;;25.90;7.82;;;;;;;;;;6114424;23;20026;-60
2024/01/26 05:40:29;;;;;;;30.48;7.45;;;;;;;;;;6112558;23;20034;-60
2024/01/26 05:43:16;;;;;;;31.67;7.32;;;;;;;;;;6108571;23;20025;-61
2024/01/26 05:46:10;;;;;;;20.23;6.18;;;;;;;;;;6113657;23;20022;-60
2024/01/26 05:48:57;;;;;;;25.02;5.82;;;;;;;;;;6111437;23;20050;-61
2024/01/26 05:51:51;;;;;;;19.42;5.78;;;;;;;;;;6092762;23;20029;-69
2024/01/26 05:54:39;;;;;;;24.25;5.80;;;;;;;;;;6113447;23;20468;-68
2024/01/26 05:57:33;;;;;;;20.40;5.70;;;;;;;;;;6116412;23;20030;-69
2024/01/26 06:00:20;;;;;;;19.38;5.85;;;;;;;;;;6109759;23;20617;-68
2024/01/26 06:03:14;;;;;;;16.05;4.35;;;;;;;;;;6113973;23;20022;-67
2024/01/26 06:06:02;;;;;;;18.42;5.45;;;;;;;;;;6116317;23;20022;-71
2024/01/26 06:08:55;;;;;;;22.73;5.82;;;;;;;;;;6117013;23;20088;-62
2024/01/26 06:11:43;;;;;;;18.92;5.05;;;;;;;;;;6117757;23;20022;-57
2024/01/26 06:14:44;;;;;;;20.92;5.38;;;;;;;;;;6116661;23;20026;-57
2024/01/26 06:17:39;;;;;;;22.67;5.35;;;;;;;;;;6117469;23;20029;-57
2024/01/26 06:20:31;;;;;;;24.50;5.68;;;;;;;;;;6116828;23;20029;-58
2024/01/26 06:23:19;;;;;;;15.63;5.13;;;;;;;;;;6115846;23;20018;-57
2024/01/26 06:26:13;;;;;;;19.85;4.80;;;;;;;;;;6116321;23;20451;-63
2024/01/26 06:29:02;;;;;;;19.30;5.32;;;;;;;;;;6116836;23;20052;-63
2024/01/26 06:31:58;;;;;;;22.65;6.07;;;;;;;;;;6115488;23;20073;-62
2024/01/26 06:34:46;;;;;;;20.65;5.18;;;;;;;;;;6114999;23;20044;-61
2024/01/26 06:37:39;;;;;;;27.33;5.80;;;;;;;;;;6115444;23;20140;-61
2024/01/26 06:40:26;;;;;;;30.02;6.20;;;;;;;;;;6115481;23;20022;-60
2024/01/26 06:43:20;;;;;;;21.77;5.97;;;;;;;;;;6114686;23;20464;-61
2024/01/26 06:46:07;;;;;;;17.67;6.07;;;;;;;;;;6115555;23;20029;-60
2024/01/26 06:49:04;;;;;;;18.65;5.78;;;;;;;;;;6116959;23;20080;-61
2024/01/26 06:51:51;;;;;;;20.25;5.85;;;;;;;;;;6114824;23;20026;-61
2024/01/26 06:54:45;;;;;;;27.75;7.07;;;;;;;;;;6116408;23;20026;-61
2024/01/26 06:57:32;;;;;;;14.30;5.25;;;;;;;;;;6116859;23;20089;-60
2024/01/26 07:00:27;;;;;;;21.48;5.78;;;;;;;;;;6115091;23;20022;-61
2024/01/26 07:03:13;;;;;;;19.80;5.70;;;;;;;;;;6116367;23;20277;-68
2024/01/26 07:06:07;;;;;;;26.17;5.50;;;;;;;;;;6116325;23;20045;-54
2024/01/26 07:08:55;;;;;;;21.15;5.95;;;;;;;;;;6116926;23;20487;-63
2024/01/26 07:11:49;;;;;;;20.42;4.72;;;;;;;;;;6116920;23;20033;-62
2024/01/26 07:14:44;;;;;;;20.95;5.20;;;;;;;;;;6116062;23;20026;-62
2024/01/26 07:17:45;;;;;;;15.40;5.07;;;;;;;;;;6118603;23;20021;-62
2024/01/26 07:20:32;;;;;;;27.00;5.35;;;;;;;;;;6118163;23;20026;-62
2024/01/26 07:23:26;;;;;;;15.25;4.65;;;;;;;;;;6117416;23;20026;-67
2024/01/26 07:26:20;;;;;;;20.60;4.30;;;;;;;;;;6117984;23;20084;-67
2024/01/26 07:29:14;;;;;;;15.98;4.68;;;;;;;;;;6117490;23;20022;-67
2024/01/26 07:32:01;;;;;;;12.80;4.97;;;;;;;;;;6116537;23;20049;-63
2024/01/26 07:34:55;;;;;;;10.88;5.47;;;;;;;;;;6117709;23;20404;-55
2024/01/26 07:37:42;;;;;;;18.48;4.72;;;;;;;;;;6117198;23;20022;-56
2024/01/26 07:40:36;;;;;;;14.80;4.32;;;;;;;;;;6117527;23;20030;-55
2024/01/26 07:43:23;;;;;;;17.33;5.13;;;;;;;;;;6119676;23;20030;-53
2024/01/26 07:46:17;;;;;;;12.10;4.88;;;;;;;;;;6118805;23;20030;-57
2024/01/26 07:49:04;;;;;;;16.13;4.93;;;;;;;;;;6117632;23;20098;-57
2024/01/26 07:52:00;;;;;;;13.38;4.55;;;;;;;;;;6118743;23;20360;-65
2024/01/26 07:54:48;;;;;;;16.45;3.60;;;;;;;;;;6117241;23;20022;-66
2024/01/26 07:57:41;;;;;;;10.57;3.33;;;;;;;;;;6116391;23;20128;-66
2024/01/26 08:00:29;;;;;;;9.30;3.92;;;;;;;;;;6116327;23;20093;-60
2024/01/26 08:03:23;;;;;;;14.07;3.65;;;;;;;;;;6117759;23;20029;-59
2024/01/26 08:06:13;;;;;;;12.90;3.60;;;;;;;;;;6117881;23;20021;-60
2024/01/26 08:09:10;;;;;;;12.02;3.78;;;;;;;;;;6118583;23;20041;-61
2024/01/26 08:11:54;;;;;;;16.45;3.97;;;;;;;;;;6117818;23;20029;-59
2024/01/26 08:15:12;;;;;;;12.07;3.50;;;;;;;;;;6117816;23;20373;-61
2024/01/26 08:18:06;;;;;;;14.15;3.67;;;;;;;;;;6118754;23;20022;-59
2024/01/26 08:20:59;;;;;;;14.40;3.55;;;;;;;;;;6119387;23;20026;-62
2024/01/26 08:23:53;;;;;;;10.10;3.17;;;;;;;;;;6118159;23;20018;-62
2024/01/26 08:26:54;;;;;;;11.85;2.70;;;;;;;;;;6117344;23;20046;-61
2024/01/26 08:29:41;;;;;;;10.27;2.55;;;;;;;;;;6115942;23;20026;-65
2024/01/26 08:32:35;;;;;;;12.98;2.47;;;;;;;;;;6117222;23;20026;-65
2024/01/26 08:35:22;;;;;;;8.05;2.33;;;;;;;;;;6117375;23;20108;-64
2024/01/26 08:38:16;;;;;;;12.63;3.22;;;;;;;;;;6116502;23;20022;-64
2024/01/26 08:41:07;;;;;;;7.75;2.67;;;;;;;;;;6116348;23;20032;-64
2024/01/26 08:44:00;;;;;;;10.05;2.40;;;;;;;;;;6116088;23;20456;-64
2024/01/26 08:46:47;;;;;;;12.35;2.65;;;;;;;;;;6117173;23;20097;-64
2024/01/26 08:49:41;;;;;;;16.05;2.80;;;;;;;;;;6116267;23;20534;-59
2024/01/26 08:52:35;;;;;;;19.08;3.25;;;;;;;;;;6117783;23;20080;-56
2024/01/26 08:55:29;;;;;;;13.43;3.28;;;;;;;;;;6116971;23;20022;-55
2024/01/26 08:58:16;;;;;;;15.60;2.90;;;;;;;;;;6117974;23;20081;-56
2024/01/26 09:01:10;;;;;;;14.27;2.97;;;;;;;;;;6116341;23;20030;-71
2024/01/26 09:04:08;;;;;;;17.73;3.67;;;;;;;;;;6118146;23;20044;-71
2024/01/26 09:06:54;;;;;;;13.40;3.10;;;;;;;;;;6116028;23;20030;-70
2024/01/26 09:09:48;;;;;;;16.00;3.40;;;;;;;;;;6116905;23;20033;-71
2024/01/26 09:12:45;;;;;;;14.07;3.17;;;;;;;;;;6116177;23;20026;-71
2024/01/26 09:15:39;;;;;;;18.15;2.67;;;;;;;;;;6116572;23;20033;-71
2024/01/26 09:18:33;;;;;;;16.63;3.33;;;;;;;;;;6117976;23;20026;-71
2024/01/26 09:21:21;;;;;;;13.25;2.88;;;;;;;;;;6117428;23;20023;-70
2024/01/26 09:24:14;;;;;;;14.55;3.05;;;;;;;;;;6118352;23;20037;-69
2024/01/26 09:27:08;;;;;;;17.15;3.53;;;;;;;;;;6117948;23;20037;-60
2024/01/26 09:30:03;;;;;;;18.52;3.08;;;;;;;;;;6116600;23;20400;-59
2024/01/26 09:32:52;;;;;;;24.02;3.78;;;;;;;;;;6116591;23;20026;-59
2024/01/26 09:35:47;;;;;;;23.58;3.83;;;;;;;;;;6115536;23;20033;-60
2024/01/26 09:38:34;;;;;;;19.05;3.05;;;;;;;;;;6115654;23;20021;-61
2024/01/26 09:41:27;;;;;;;21.42;3.65;;;;;;;;;;6115327;23;20022;-61
2024/01/26 09:44:14;;;;;;;17.95;3.53;;;;;;;;;;6116297;23;20029;-61
2024/01/26 09:47:08;;;;;;;17.42;3.58;;;;;;;;;;6115836;23;20053;-61
2024/01/26 09:49:56;;;;;;;22.40;3.88;;;;;;;;;;6116586;23;20356;-58
2024/01/26 09:52:51;;;;;;;21.55;3.22;;;;;;;;;;6116608;23;20025;-60
2024/01/26 09:55:39;;;;;;;22.77;3.35;;;;;;;;;;6116854;23;20357;-52
2024/01/26 09:58:31;;;;;;;12.30;2.65;;;;;;;;;;6116450;23;20093;-64
2024/01/26 10:01:21;;;;;;;8.10;2.72;;;;;;;;;;6115915;23;20700;-64
2024/01/26 10:04:14;;;;;;;12.38;2.72;;;;;;;;;;6115113;23;20040;-63
2024/01/26 10:07:02;;;;;;;15.68;2.88;;;;;;;;;;6114607;23;20030;-64
2024/01/26 10:09:55;;;;;;;10.05;2.03;;;;;;;;;;6115381;23;20088;-63
2024/01/26 10:12:43;;;;;;;15.65;2.75;;;;;;;;;;6115159;23;20077;-61
2024/01/26 10:15:49;;;;;;;9.23;2.28;;;;;;;;;;6116443;23;20034;-61
2024/01/26 10:18:47;;;;;;;7.30;2.00;;;;;;;;;;6116934;23;20077;-62
2024/01/26 10:21:40;;;;;;;6.38;2.17;;;;;;;;;;6116581;23;20026;-60
2024/01/26 10:24:29;;;;;;;7.50;1.90;;;;;;;;;;6116327;23;20022;-64
2024/01/26 10:27:22;;;;;;;7.95;2.20;;;;;;;;;;6117694;23;20018;-61
2024/01/26 10:30:11;;;;;;;7.55;2.40;;;;;;;;;;6117790;23;20093;-60
2024/01/26 10:33:04;;;;;;;7.97;2.20;;;;;;;;;;6115782;23;20025;-60
2024/01/26 10:36:00;;;;;;;9.27;2.00;;;;;;;;;;6115275;23;20025;-62
2024/01/26 10:38:54;;;;;;;4.63;1.77;;;;;;;;;;6114502;23;20021;-60
2024/01/26 10:41:42;;;;;;;5.57;2.13;;;;;;;;;;6115099;23;20089;-61
2024/01/26 10:44:38;;;;;;;5.55;1.67;;;;;;;;;;6114559;23;20410;-61
2024/01/26 10:47:25;;;;;;;5.50;1.60;;;;;;;;;;6114943;23;20547;-60
2024/01/26 10:50:20;;;;;;;4.35;1.33;;;;;;;;;;6114358;23;20022;-61
2024/01/26 10:53:14;;;;;;;9.05;1.48;;;;;;;;;;6116128;23;20132;-61
2024/01/26 10:56:04;;;;;;;8.55;2.15;;;;;;;;;;6114736;23;20364;-63
2024/01/26 10:58:55;;;;;;;7.15;1.77;;;;;;;;;;6113349;23;20468;-63
2024/01/26 11:01:42;;;;;;;3.38;1.70;;;;;;;;;;6115964;23;20057;-63
2024/01/26 11:04:39;;;;;;;4.05;1.63;;;;;;;;;;6116363;23;20022;-63
2024/01/26 11:07:27;;;;;;;7.15;1.58;;;;;;;;;;6115409;23;20404;-62
2024/01/26 11:10:22;;;;;;;8.35;1.80;;;;;;;;;;6115889;23;20468;-66
2024/01/26 11:13:14;;;;;;;5.25;1.58;;;;;;;;;;6114223;23;20022;-66
2024/01/26 11:16:24;;;;;;;6.05;1.88;;;;;;;;;;6114796;23;20026;-67
2024/01/26 11:19:21;;;;;;;4.95;1.48;;;;;;;;;;6115304;23;20026;-67
2024/01/26 11:22:15;;;;;;;8.05;1.60;;;;;;;;;;6115579;23;20105;-58
2024/01/26 11:25:02;;;;;;;4.93;1.52;;;;;;;;;;6116776;23;20026;-63
2024/01/26 11:28:00;;;;;;;2.33;1.27;;;;;;;;;;6116540;23;20022;-63
2024/01/26 11:31:02;;;;;;;2.00;1.20;;;;;;;;;;6116515;23;20050;-63
2024/01/26 11:34:02;;;;;;;3.90;1.40;;;;;;;;;;6116723;23;20025;-63
2024/01/26 11:37:04;;;;;;;1.40;0.80;;;;;;;;;;6115974;23;20028;-62
2024/01/26 11:40:01;;;;;;;5.38;1.10;;;;;;;;;;6116098;23;20058;-66
2024/01/26 11:42:48;;;;;;;0.85;0.75;;;;;;;;;;6115798;23;20081;-67
2024/01/26 11:45:43;;;;;;;2.33;1.17;;;;;;;;;;6115194;23;20352;-67
2024/01/26 11:51:08;;;;;;;;;;;;;;;;;;6105468;23;20018;-61
2024/01/26 11:54:02;;;;;;;3.20;0.75;;;;;;;;;;6115639;23;19921;-61
2024/01/26 11:56:55;;;;;;;2.80;0.73;;;;;;;;;;6115439;23;20033;-61
2024/01/26 11:59:42;;;;;;;5.82;0.85;;;;;;;;;;6113021;23;20456;-61
2024/01/26 12:02:37;;;;;;;0.95;0.75;;;;;;;;;;6116643;23;20316;-61
2024/01/26 12:05:26;;;;;;;0.70;0.70;;;;;;;;;;6116794;23;20028;-60
2024/01/26 12:08:19;;;;;;;0.65;0.63;;;;;;;;;;6117369;23;20715;-69
2024/01/26 12:11:07;;;;;;;1.42;0.88;;;;;;;;;;6117278;23;20125;-70
2024/01/26 12:14:00;;;;;;;0.70;0.52;;;;;;;;;;6118511;23;20077;-70
2024/01/26 12:16:47;;;;;;;1.15;0.80;;;;;;;;;;6117542;23;20073;-69
2024/01/26 12:22:23;;;;;;;0.65;0.60;;;;;;;;;;6114204;23;20303;-65
2024/01/26 12:24:57;;;;;;;1.30;0.77;;;;;;;;;;6093476;23;20081;-65
2024/01/26 12:27:25;;;;;;;1.95;0.77;;;;;;;;;;6117078;23;20022;-64
2024/01/26 12:30:19;;;;;;;0.70;0.60;;;;;;;;;;6116996;23;20024;-65
2024/01/26 12:33:14;;;;;;;0.52;0.52;;;;;;;;;;6116885;23;20543;-64
2024/01/26 12:36:02;;;;;;;0.52;0.47;;;;;;;;;;6116585;23;20289;-50
2024/01/26 12:38:56;;;;;;;1.00;0.60;;;;;;;;;;6116127;23;20089;-62
2024/01/26 12:41:43;;;;;;;0.75;0.50;;;;;;;;;;6116299;23;20428;-62
2024/01/26 12:44:37;;;;;;;3.00;0.60;;;;;;;;;;6116017;23;20100;-62
2024/01/26 12:47:31;;;;;;;0.77;0.50;;;;;;;;;;6116868;23;20018;-60
2024/01/26 12:50:18;;;;;;;0.55;0.50;;;;;;;;;;6116611;23;20021;-61
2024/01/26 12:53:13;;;;;;;0.60;0.60;;;;;;;;;;6117048;23;20479;-61
2024/01/26 12:56:00;;;;;;;1.42;0.73;;;;;;;;;;6116254;23;20026;-64
2024/01/26 12:58:54;;;;;;;0.93;0.50;;;;;;;;;;6117954;23;20319;-64
2024/01/26 13:01:41;;;;;;;0.50;0.50;;;;;;;;;;6114056;23;20252;-64
2024/01/26 13:04:35;;;;;;;0.52;0.50;;;;;;;;;;6116351;23;20062;-64
2024/01/26 13:07:23;;;;;;;0.65;0.60;;;;;;;;;;6116376;23;20116;-64
2024/01/26 13:10:16;;;;;;;1.02;0.60;;;;;;;;;;6116000;23;20093;-65
2024/01/26 13:13:03;;;;;;;0.40;0.40;;;;;;;;;;6117464;23;20543;-65
2024/01/26 13:15:57;;;;;;;0.40;0.40;;;;;;;;;;6117297;23;20033;-64
2024/01/26 13:18:46;;;;;;;0.90;0.80;;;;;;;;;;6117088;23;20064;-64
2024/01/26 13:21:48;;;;;;;1.02;0.90;;;;;;;;;;6135330;23;20032;-61
2024/01/26 13:24:34;;;;;;;1.75;0.50;;;;;;;;;;6145902;23;20029;-65
2024/01/26 13:27:26;;;;;;;0.50;0.50;;;;;;;;;;6145131;23;20038;-64
2024/01/26 13:30:14;;;;;;;0.55;0.50;;;;;;;;;;6145421;23;20029;-65
2024/01/26 13:33:07;;;;;;;0.50;0.50;;;;;;;;;;6146069;23;20363;-64
2024/01/26 13:35:55;;;;;;;0.50;0.50;;;;;;;;;;6146185;23;20752;-64
2024/01/26 13:38:48;;;;;;;0.65;0.43;;;;;;;;;;6146725;23;20037;-64
2024/01/26 13:41:36;;;;;;;0.40;0.40;;;;;;;;;;6144831;23;20029;-67
2024/01/26 13:44:30;;;;;;;0.57;0.50;;;;;;;;;;6145799;23;20026;-66
2024/01/26 13:47:18;;;;;;;0.63;0.47;;;;;;;;;;6146336;23;20142;-67
2024/01/26 13:50:19;;;;;;;0.50;0.25;;;;;;;;;;6146644;23;20022;-62
2024/01/26 13:53:14;;;;;;;0.25;0.25;;;;;;;;;;6143632;23;20399;-65
2024/01/26 13:56:01;;;;;;;0.32;0.32;;;;;;;;;;6145607;23;20022;-65
2024/01/26 13:58:56;;;;;;;0.30;0.30;;;;;;;;;;6146327;23;20029;-64
2024/01/26 14:01:49;;;;;;;0.22;0.22;;;;;;;;;;6143982;23;20029;-65
2024/01/26 14:04:36;;;;;;;0.85;0.40;;;;;;;;;;6145223;23;20029;-65
2024/01/26 14:07:30;;;;;;;0.47;0.30;;;;;;;;;;6145715;23;20026;-65
2024/01/26 14:10:21;;;;;;;0.40;0.40;;;;;;;;;;6144169;23;20080;-67
2024/01/26 14:13:14;;;;;;;0.80;0.40;;;;;;;;;;6146781;23;20097;-67
2024/01/26 14:16:02;;;;;;;0.50;0.50;;;;;;;;;;6147716;23;20343;-66
2024/01/26 14:18:56;;;;;;;0.85;0.30;;;;;;;;;;6146375;23;20272;-61
2024/01/26 14:21:50;;;;;;;0.30;0.30;;;;;;;;;;6143855;23;20055;-67
2024/01/26 14:24:51;;;;;;;0.47;0.40;;;;;;;;;;6145379;23;20025;-67
2024/01/26 14:27:38;;;;;;;0.35;0.30;;;;;;;;;;6144253;23;20033;-67
2024/01/26 14:30:32;;;;;;;0.30;0.30;;;;;;;;;;6144429;23;20615;-67
2024/01/26 14:33:19;;;;;;;3.03;0.95;;;;;;;;;;6145221;23;20018;-67
2024/01/26 14:36:13;;;;;;;0.47;0.40;;;;;;;;;;6144432;23;20096;-67
2024/01/26 14:39:03;;;;;;;0.35;0.35;;;;;;;;;;6145205;23;20355;-62
2024/01/26 14:41:55;;;;;;;0.30;0.30;;;;;;;;;;6144599;23;20029;-61
2024/01/26 14:44:43;;;;;;;0.45;0.40;;;;;;;;;;6144723;23;20628;-61
2024/01/26 14:47:36;;;;;;;0.40;0.40;;;;;;;;;;6144651;23;20026;-61
2024/01/26 14:50:31;;;;;;;0.38;0.30;;;;;;;;;;6145717;23;20048;-65
2024/01/26 14:53:18;;;;;;;0.30;0.30;;;;;;;;;;6146163;23;20076;-64
2024/01/26 14:56:12;;;;;;;0.22;0.22;;;;;;;;;;6146550;23;20029;-65
2024/01/26 14:59:00;;;;;;;0.20;0.20;;;;;;;;;;6143994;23;20025;-65
2024/01/26 15:01:54;;;;;;;0.35;0.30;;;;;;;;;;6144752;23;20611;-64
2024/01/26 15:04:41;;;;;;;0.38;0.38;;;;;;;;;;6146603;23;20076;-64
2024/01/26 15:07:35;;;;;;;0.40;0.40;;;;;;;;;;6146922;23;20025;-61
2024/01/26 15:10:22;;;;;;;0.30;0.30;;;;;;;;;;6147463;23;20086;-62
2024/01/26 15:13:16;;;;;;;0.20;0.20;;;;;;;;;;6148047;23;20048;-61
2024/01/26 15:16:06;;;;;;;0.35;0.35;;;;;;;;;;6147033;23;20080;-67
2024/01/26 15:19:01;;;;;;;0.47;0.40;;;;;;;;;;6143860;23;20161;-61
2024/01/26 15:21:56;;;;;;;1.10;0.45;;;;;;;;;;6143300;23;20103;-60
2024/01/26 15:24:49;;;;;;;0.50;0.40;;;;;;;;;;6144757;23;20120;-60
2024/01/26 15:27:37;;;;;;;0.47;0.47;;;;;;;;;;6145099;23;20028;-61
2024/01/26 15:30:30;;;;;;;0.50;0.50;;;;;;;;;;6146014;23;20026;-61
2024/01/26 15:33:17;;;;;;;2.25;0.60;;;;;;;;;;6145786;23;20358;-65
2024/01/26 15:36:11;;;;;;;3.67;0.93;;;;;;;;;;6145112;23;20032;-64
2024/01/26 15:38:59;;;;;;;1.10;0.80;;;;;;;;;;6146018;23;20466;-64
2024/01/26 15:41:52;;;;;;;6.57;1.80;;;;;;;;;;6146961;23;20025;-65
2024/01/26 15:44:41;;;;;;;7.43;2.20;;;;;;;;;;6146763;23;20026;-62
2024/01/26 15:47:34;;;;;;;8.95;2.70;;;;;;;;;;6147511;23;20060;-64
2024/01/26 15:50:22;;;;;;;11.38;3.55;;;;;;;;;;6148270;23;20030;-65
2024/01/26 15:53:15;;;;;;;13.02;3.72;;;;;;;;;;6147712;23;20076;-65
2024/01/26 15:56:06;;;;;;;19.33;3.60;;;;;;;;;;6147761;23;20427;-65
2024/01/26 15:58:59;;;;;;;38.17;6.57;;;;;;;;;;6145935;23;20026;-64
2024/01/26 16:01:53;;;;;;;37.47;5.75;;;;;;;;;;6145839;23;20029;-67
2024/01/26 16:04:47;;;;;;;41.47;5.82;;;;;;;;;;6145257;23;20028;-67
2024/01/26 16:07:34;;;;;;;47.50;5.10;;;;;;;;;;6147439;23;20363;-68
2024/01/26 16:10:28;;;;;;;63.42;6.25;;;;;;;;;;6144911;23;20395;-68
2024/01/26 16:13:15;;;;;;;45.13;5.30;;;;;;;;;;6145630;23;20026;-62
2024/01/26 16:16:09;;;;;;;36.05;4.32;;;;;;;;;;6143953;23;20032;-61
2024/01/26 16:18:57;;;;;;;37.03;3.85;;;;;;;;;;6142002;23;20025;-61
2024/01/26 16:21:57;;;;;;;18.52;3.22;;;;;;;;;;6142746;23;20341;-61
2024/01/26 16:24:44;;;;;;;19.70;2.55;;;;;;;;;;6144272;23;20025;-61
2024/01/26 16:27:38;;;;;;;20.17;3.03;;;;;;;;;;6143735;23;20411;-61
2024/01/26 16:30:25;;;;;;;24.33;2.72;;;;;;;;;;6144628;23;20534;-52
2024/01/26 16:33:19;;;;;;;21.17;2.67;;;;;;;;;;6142102;23;20036;-55
2024/01/26 16:36:07;;;;;;;16.47;2.40;;;;;;;;;;6144392;23;20024;-55
2024/01/26 16:39:01;;;;;;;14.35;2.08;;;;;;;;;;6145214;23;20033;-56
2024/01/26 16:41:57;;;;;;;9.80;1.90;;;;;;;;;;6145312;23;20100;-61
2024/01/26 16:44:51;;;;;;;10.00;1.95;;;;;;;;;;6145142;23;20021;-68
2024/01/26 16:47:45;;;;;;;14.57;2.33;;;;;;;;;;6145116;23;20097;-68
2024/01/26 16:50:32;;;;;;;21.77;2.92;;;;;;;;;;6140325;23;20025;-68
2024/01/26 16:53:26;;;;;;;20.92;2.58;;;;;;;;;;6142276;23;20538;-67
2024/01/26 16:56:15;;;;;;;11.45;2.53;;;;;;;;;;6144160;23;20523;-68
2024/01/26 16:59:09;;;;;;;13.00;1.85;;;;;;;;;;6144969;23;20037;-61
2024/01/26 17:01:56;;;;;;;9.57;2.20;;;;;;;;;;6142458;23;20029;-61